Time;durP1;ratioP1;P1;durP2;ratioP2;P2;SDS_P1;SDS_P2;PMS_P1;PMS_P2;Temp;Humidity;BMP_temperature;BMP_pressure;BME280_temperature;BME280_humidity;BME280_pressure;Samples;Min_cycle;Max_cycle;Signal;HPM_P1;HPM_P2
2022/04/30 00:00:29;;;;;;;3.65;3.45;;;14.30;76.40;;;;;;5012943;28;20252;-75
2022/04/30 00:02:57;;;;;;;3.63;3.33;;;14.20;76.70;;;;;;5016023;28;20303;-74
2022/04/30 00:05:24;;;;;;;4.18;3.88;;;14.20;76.60;;;;;;5043049;28;20271;-74
2022/04/30 00:07:49;;;;;;;5.50;3.92;;;14.20;76.30;;;;;;5014834;28;20243;-74
2022/04/30 00:10:15;;;;;;;3.47;3.25;;;14.20;76.50;;;;;;5014579;28;20184;-74
2022/04/30 00:12:41;;;;;;;3.63;3.33;;;14.20;77.00;;;;;;5014501;28;20207;-75
2022/04/30 00:15:08;;;;;;;3.53;3.28;;;14.10;76.40;;;;;;5008530;28;20189;-75
2022/04/30 00:17:34;;;;;;;3.78;3.47;;;14.10;76.70;;;;;;5012833;28;20284;-75
2022/04/30 00:20:00;;;;;;;3.25;2.95;;;14.10;77.00;;;;;;5042609;28;20211;-75
2022/04/30 00:22:26;;;;;;;4.07;3.75;;;14.10;76.90;;;;;;5018534;28;20188;-75
2022/04/30 00:24:52;;;;;;;5.60;3.03;;;14.00;77.60;;;;;;5016973;28;20227;-75
2022/04/30 00:27:20;;;;;;;3.67;3.35;;;14.00;77.40;;;;;;5008480;28;20892;-75
2022/04/30 00:29:46;;;;;;;4.15;3.85;;;14.00;77.50;;;;;;5012707;28;20184;-75
2022/04/30 00:32:14;;;;;;;3.67;3.13;;;14.00;77.00;;;;;;5011269;28;20681;-75
2022/04/30 00:34:41;;;;;;;3.58;3.38;;;14.00;76.20;;;;;;5025887;28;20764;-75
2022/04/30 00:37:06;;;;;;;2.60;2.50;;;13.90;76.60;;;;;;5011752;28;20188;-75
2022/04/30 00:39:33;;;;;;;3.13;2.92;;;13.90;77.50;;;;;;5017233;28;20267;-76
2022/04/30 00:41:59;;;;;;;3.75;2.95;;;13.90;77.60;;;;;;5013761;28;20246;-75
2022/04/30 00:44:25;;;;;;;4.32;3.17;;;13.90;76.40;;;;;;5011776;28;20352;-75
2022/04/30 00:46:51;;;;;;;2.50;2.40;;;13.90;77.30;;;;;;5011239;28;20279;-75
2022/04/30 00:49:16;;;;;;;5.82;3.38;;;13.80;76.80;;;;;;5009867;28;21115;-75
2022/04/30 00:51:43;;;;;;;3.55;3.25;;;13.80;76.80;;;;;;5011341;28;20226;-75
2022/04/30 00:54:12;;;;;;;2.85;2.63;;;13.80;76.40;;;;;;5007533;28;20185;-76
2022/04/30 00:56:58;;;;;;;2.80;2.70;;;13.80;77.40;;;;;;5011229;28;20181;-75
2022/04/30 00:59:25;;;;;;;3.42;3.13;;;13.70;76.30;;;;;;5011756;28;20189;-75
2022/04/30 01:01:51;;;;;;;3.78;3.45;;;13.70;76.90;;;;;;5012386;28;20828;-75
2022/04/30 01:04:20;;;;;;;3.45;3.25;;;13.70;76.10;;;;;;5010871;28;20215;-75
2022/04/30 01:06:57;;;;;;;3.30;2.95;;;13.60;75.80;;;;;;5014615;28;20200;-75
2022/04/30 01:09:31;;;;;;;3.08;2.75;;;13.60;75.60;;;;;;5017016;28;20238;-75
2022/04/30 01:12:00;;;;;;;2.45;2.35;;;13.60;77.90;;;;;;5024685;28;20192;-75
2022/04/30 01:14:31;;;;;;;2.88;2.67;;;13.60;78.30;;;;;;5011535;28;20270;-75
2022/04/30 01:17:05;;;;;;;3.10;2.80;;;13.60;77.40;;;;;;5025107;28;20235;-75
2022/04/30 01:19:33;;;;;;;3.40;3.20;;;13.50;76.90;;;;;;5026715;28;20275;-74
2022/04/30 01:22:01;;;;;;;3.10;2.90;;;13.50;76.10;;;;;;5010420;28;20199;-74
2022/04/30 01:24:28;;;;;;;3.35;2.75;;;13.40;76.10;;;;;;5042323;28;20212;-75
2022/04/30 01:27:00;;;;;;;2.72;2.60;;;13.40;77.00;;;;;;5011716;28;20239;-75
2022/04/30 01:29:33;;;;;;;2.97;2.78;;;13.40;76.80;;;;;;5045109;28;20189;-75
2022/04/30 01:37:29;;;;;;;3.75;3.53;;;13.30;77.00;;;;;;5011567;28;20668;-74
2022/04/30 01:40:03;;;;;;;3.45;3.15;;;13.20;76.80;;;;;;5010999;28;20220;-75
2022/04/30 01:42:31;;;;;;;2.95;2.72;;;13.20;77.60;;;;;;5028718;28;20706;-75
2022/04/30 01:44:58;;;;;;;3.13;2.92;;;13.20;77.60;;;;;;5008681;28;20265;-75
2022/04/30 01:47:24;;;;;;;3.35;3.15;;;13.10;76.70;;;;;;5007414;28;20715;-75
2022/04/30 01:49:51;;;;;;;3.17;2.45;;;13.10;77.60;;;;;;5010478;28;20188;-75
2022/04/30 01:52:17;;;;;;;3.17;2.88;;;13.00;77.40;;;;;;5006945;28;20173;-75
2022/04/30 01:54:43;;;;;;;3.15;2.85;;;13.00;78.60;;;;;;5009202;28;20185;-75
2022/04/30 01:57:09;;;;;;;2.78;2.58;;;13.00;77.80;;;;;;5029832;28;20193;-76
2022/04/30 01:59:35;;;;;;;2.63;2.53;;;13.00;79.60;;;;;;5038463;28;20580;-76
2022/04/30 02:02:03;;;;;;;3.47;3.20;;;12.90;78.80;;;;;;5004529;28;20188;-75
2022/04/30 02:04:30;;;;;;;3.28;2.80;;;12.90;79.30;;;;;;5010610;28;20805;-73
2022/04/30 02:06:59;;;;;;;3.17;2.97;;;12.90;78.50;;;;;;5040842;28;20189;-74
2022/04/30 02:09:28;;;;;;;3.00;2.67;;;12.90;77.70;;;;;;5027832;28;20189;-74
2022/04/30 02:11:59;;;;;;;2.95;2.85;;;12.80;78.60;;;;;;5041024;28;20187;-74
2022/04/30 02:14:31;;;;;;;3.38;3.17;;;12.80;78.50;;;;;;5011915;28;20181;-74
2022/04/30 02:17:05;;;;;;;3.40;3.10;;;12.80;80.70;;;;;;5007768;28;20192;-75
2022/04/30 02:20:18;;;;;;;3.42;3.03;;;12.80;80.90;;;;;;5012192;28;20243;-74
2022/04/30 02:22:21;;;;;;;3.40;3.10;;;12.80;81.00;;;;;;5009812;28;20177;-74
2022/04/30 02:24:48;;;;;;;3.35;3.03;;;12.70;81.50;;;;;;5039168;28;20804;-74
2022/04/30 02:27:16;;;;;;;3.22;3.03;;;12.50;81.10;;;;;;5038807;28;20304;-75
2022/04/30 02:29:41;;;;;;;3.05;2.85;;;12.50;81.70;;;;;;5038350;28;20283;-75
2022/04/30 02:32:07;;;;;;;4.55;3.05;;;12.40;82.10;;;;;;5006516;28;20303;-74
2022/04/30 02:34:35;;;;;;;3.63;3.38;;;12.30;81.80;;;;;;5007678;28;20192;-75
2022/04/30 02:37:03;;;;;;;3.78;3.40;;;12.30;82.60;;;;;;5010631;28;20192;-76
2022/04/30 02:39:30;;;;;;;3.40;3.20;;;12.30;82.80;;;;;;5043944;28;20188;-74
2022/04/30 02:41:56;;;;;;;12.10;4.40;;;12.30;82.30;;;;;;5014581;28;20622;-73
2022/04/30 02:44:26;;;;;;;3.78;3.47;;;12.30;82.60;;;;;;5011345;28;20195;-75
2022/04/30 02:46:54;;;;;;;3.67;3.38;;;12.30;82.60;;;;;;5008496;28;20180;-75
2022/04/30 02:49:21;;;;;;;4.60;2.78;;;12.30;82.40;;;;;;5010489;28;20230;-73
2022/04/30 02:51:48;;;;;;;4.35;3.38;;;12.30;82.50;;;;;;5009104;28;20287;-74
2022/04/30 02:54:15;;;;;;;5.18;4.45;;;12.30;82.50;;;;;;5011417;28;20179;-75
2022/04/30 02:56:41;;;;;;;4.25;3.80;;;12.30;82.50;;;;;;5043037;28;20188;-75
2022/04/30 03:01:51;;;;;;;4.60;4.13;;;12.10;83.20;;;;;;5008043;28;20223;-75
2022/04/30 03:04:16;;;;;;;4.38;3.83;;;12.10;83.00;;;;;;5010474;28;20181;-74
2022/04/30 03:06:43;;;;;;;4.55;4.15;;;12.00;83.40;;;;;;5009517;28;20262;-74
2022/04/30 03:09:09;;;;;;;4.65;3.72;;;12.00;83.70;;;;;;5010768;28;20284;-74
2022/04/30 03:11:35;;;;;;;4.63;3.85;;;12.00;83.20;;;;;;5012702;28;20684;-74
2022/04/30 03:14:00;;;;;;;7.10;4.63;;;12.00;83.40;;;;;;5008313;28;20192;-76
2022/04/30 03:21:59;;;;;;;4.13;3.60;;;11.90;83.40;;;;;;4982917;28;20211;-75
2022/04/30 03:24:27;;;;;;;4.60;3.58;;;11.90;83.90;;;;;;4985661;28;20193;-74
2022/04/30 03:26:54;;;;;;;4.50;4.07;;;11.80;84.10;;;;;;4984331;28;20177;-74
2022/04/30 03:29:20;;;;;;;4.68;3.70;;;11.80;83.90;;;;;;4986099;28;20277;-76
2022/04/30 03:31:46;;;;;;;5.18;4.15;;;11.80;83.90;;;;;;4986667;28;20198;-77
2022/04/30 03:34:14;;;;;;;4.55;3.60;;;11.80;84.00;;;;;;4989412;28;20200;-74
2022/04/30 03:36:40;;;;;;;5.95;4.20;;;11.70;84.20;;;;;;4969240;28;20753;-75
2022/04/30 03:39:06;;;;;;;4.40;3.97;;;11.70;84.30;;;;;;4988604;28;20190;-75
2022/04/30 03:41:32;;;;;;;3.70;3.40;;;11.70;84.30;;;;;;4981048;28;20492;-75
2022/04/30 03:43:58;;;;;;;4.18;3.78;;;11.70;84.80;;;;;;4984533;28;20220;-76
2022/04/30 03:46:23;;;;;;;3.58;3.28;;;11.60;85.20;;;;;;4983953;28;20216;-75
2022/04/30 03:48:53;;;;;;;4.32;3.90;;;11.50;85.70;;;;;;4983918;28;20185;-76
2022/04/30 03:51:26;;;;;;;3.97;3.58;;;11.50;85.50;;;;;;4983641;28;20255;-75
2022/04/30 03:53:54;;;;;;;5.30;4.22;;;11.50;84.90;;;;;;4990230;28;20896;-74
2022/04/30 03:56:22;;;;;;;4.32;3.92;;;11.50;85.10;;;;;;4996494;28;20185;-75
2022/04/30 03:58:49;;;;;;;4.15;3.75;;;11.50;84.90;;;;;;5009058;28;20319;-75
2022/04/30 04:01:18;;;;;;;4.00;3.58;;;11.50;85.10;;;;;;5006731;28;20213;-75
2022/04/30 04:03:44;;;;;;;4.00;3.50;;;11.50;85.30;;;;;;5006386;28;20730;-75
2022/04/30 04:06:10;;;;;;;4.05;3.65;;;11.50;85.50;;;;;;5006953;28;20623;-75
2022/04/30 04:08:37;;;;;;;4.22;3.78;;;11.50;85.80;;;;;;5009696;28;20187;-74
2022/04/30 04:11:03;;;;;;;6.43;3.63;;;11.40;85.10;;;;;;5011123;28;20189;-75
2022/04/30 04:18:57;;;;;;;4.68;3.72;;;11.40;85.70;;;;;;5010533;28;20230;-75
2022/04/30 04:21:23;;;;;;;3.97;3.25;;;11.40;86.00;;;;;;5009508;28;20208;-74
2022/04/30 04:26:34;;;;;;;4.25;3.83;;;11.30;86.30;;;;;;5010389;28;20577;-75
2022/04/30 04:28:59;;;;;;;4.22;3.80;;;11.40;86.30;;;;;;5013165;28;20208;-75
2022/04/30 04:31:25;;;;;;;4.18;3.30;;;11.40;86.00;;;;;;5011159;28;21052;-75
2022/04/30 04:33:51;;;;;;;5.55;4.13;;;11.40;86.40;;;;;;5015361;28;20211;-75
2022/04/30 04:36:19;;;;;;;4.43;3.88;;;11.50;86.70;;;;;;5011804;28;20180;-75
2022/04/30 04:38:45;;;;;;;4.18;3.58;;;11.50;86.30;;;;;;5015603;28;20185;-75
2022/04/30 04:41:12;;;;;;;4.05;3.50;;;11.60;86.00;;;;;;5008406;28;20209;-76
2022/04/30 04:43:38;;;;;;;4.00;3.75;;;11.60;85.80;;;;;;5045468;28;20866;-75
2022/04/30 04:46:03;;;;;;;6.05;4.22;;;11.70;85.70;;;;;;5013590;28;20251;-74
2022/04/30 04:48:30;;;;;;;4.50;4.10;;;11.80;85.90;;;;;;5013813;28;20216;-77
2022/04/30 04:50:56;;;;;;;4.45;4.03;;;11.90;85.40;;;;;;5014117;28;20189;-76
2022/04/30 04:53:21;;;;;;;4.68;4.15;;;12.00;85.20;;;;;;5018203;28;20191;-76
2022/04/30 04:55:47;;;;;;;4.43;3.67;;;12.10;84.90;;;;;;5009277;28;20192;-76
2022/04/30 04:58:14;;;;;;;4.78;4.22;;;12.20;84.90;;;;;;5010497;28;20192;-76
2022/04/30 05:00:40;;;;;;;5.03;3.83;;;12.20;84.60;;;;;;5009581;28;20650;-76
2022/04/30 05:03:07;;;;;;;5.00;4.53;;;12.30;84.70;;;;;;5010717;28;20189;-76
2022/04/30 05:05:32;;;;;;;5.45;4.35;;;12.40;84.50;;;;;;5007092;28;20216;-76
2022/04/30 05:07:58;;;;;;;5.57;5.00;;;12.50;84.50;;;;;;5009623;28;20216;-75
2022/04/30 05:10:24;;;;;;;4.60;4.15;;;12.60;84.40;;;;;;5013427;28;20192;-75
2022/04/30 05:12:49;;;;;;;4.68;4.28;;;12.60;84.20;;;;;;5012629;28;20207;-74
2022/04/30 05:15:15;;;;;;;4.80;4.40;;;12.70;84.10;;;;;;5011360;28;20181;-74
2022/04/30 05:17:42;;;;;;;5.03;3.88;;;12.80;83.90;;;;;;5012946;28;20193;-75
2022/04/30 05:20:08;;;;;;;5.68;4.50;;;12.80;83.80;;;;;;5012081;28;20201;-76
2022/04/30 05:22:34;;;;;;;5.07;4.57;;;12.90;83.60;;;;;;5044802;28;20272;-75
2022/04/30 05:25:00;;;;;;;5.18;4.68;;;13.10;83.70;;;;;;5011669;28;20278;-76
2022/04/30 05:27:26;;;;;;;4.80;4.15;;;13.20;83.80;;;;;;5007161;28;20189;-73
2022/04/30 05:29:51;;;;;;;7.85;4.97;;;13.30;83.40;;;;;;5013076;28;20185;-76
2022/04/30 05:32:17;;;;;;;4.43;4.03;;;13.40;83.10;;;;;;5016957;28;20211;-74
2022/04/30 05:34:43;;;;;;;5.97;4.40;;;13.50;83.20;;;;;;5011955;28;20189;-76
2022/04/30 05:37:09;;;;;;;5.22;4.10;;;13.60;82.90;;;;;;5009790;28;20185;-75
2022/04/30 05:39:34;;;;;;;4.85;4.40;;;13.70;83.10;;;;;;5007013;28;20187;-76
2022/04/30 05:42:00;;;;;;;4.28;3.92;;;13.80;83.00;;;;;;5011948;28;20221;-75
2022/04/30 05:44:26;;;;;;;5.03;4.65;;;13.80;83.00;;;;;;5012207;28;20177;-75
2022/04/30 05:46:51;;;;;;;6.75;3.88;;;13.90;82.70;;;;;;5009990;28;20193;-75
2022/04/30 05:49:17;;;;;;;4.85;3.92;;;14.00;82.60;;;;;;5005056;28;20185;-75
2022/04/30 05:51:43;;;;;;;4.45;3.80;;;14.20;81.70;;;;;;5012599;28;20199;-75
2022/04/30 05:54:09;;;;;;;5.28;4.18;;;14.30;81.40;;;;;;5011142;28;20208;-75
2022/04/30 05:56:35;;;;;;;3.67;3.42;;;14.50;80.60;;;;;;5004611;28;20212;-75
2022/04/30 05:59:01;;;;;;;10.60;4.20;;;14.60;80.80;;;;;;5010984;28;20192;-75
2022/04/30 06:01:26;;;;;;;7.43;4.18;;;14.70;80.80;;;;;;5007235;28;20279;-75
2022/04/30 06:03:53;;;;;;;4.07;3.72;;;14.80;81.00;;;;;;5006906;28;20593;-75
2022/04/30 06:06:20;;;;;;;4.90;4.18;;;15.00;80.60;;;;;;5011208;28;20669;-75
2022/04/30 06:08:46;;;;;;;4.53;4.22;;;15.10;80.30;;;;;;5009784;28;20188;-75
2022/04/30 06:11:12;;;;;;;5.63;4.93;;;15.20;79.70;;;;;;5005823;28;20193;-75
2022/04/30 06:13:37;;;;;;;4.40;4.00;;;15.30;77.70;;;;;;5003703;28;20581;-75
2022/04/30 06:16:04;;;;;;;4.43;3.92;;;15.40;78.60;;;;;;5007077;28;20208;-75
2022/04/30 06:18:30;;;;;;;5.05;4.20;;;15.40;78.90;;;;;;5006363;28;20193;-74
2022/04/30 06:20:55;;;;;;;5.10;4.63;;;15.50;78.30;;;;;;5009510;28;20215;-76
2022/04/30 06:23:21;;;;;;;4.05;3.85;;;15.60;78.50;;;;;;5006185;28;20267;-76
2022/04/30 06:25:47;;;;;;;4.13;3.92;;;15.70;78.50;;;;;;5009957;28;20212;-76
2022/04/30 06:28:14;;;;;;;4.50;4.10;;;15.70;78.10;;;;;;5009656;28;20184;-76
2022/04/30 06:30:42;;;;;;;4.40;4.03;;;15.80;77.30;;;;;;5010518;28;20186;-76
2022/04/30 06:33:08;;;;;;;3.80;3.50;;;15.90;77.20;;;;;;5008082;28;20176;-75
2022/04/30 06:35:35;;;;;;;4.10;3.80;;;15.90;76.20;;;;;;5006472;28;20180;-76
2022/04/30 06:38:02;;;;;;;4.35;3.95;;;16.00;75.70;;;;;;5006788;28;20233;-77
2022/04/30 06:40:28;;;;;;;3.88;3.65;;;16.00;75.80;;;;;;5008918;28;20355;-78
2022/04/30 06:42:54;;;;;;;5.57;3.90;;;16.00;75.80;;;;;;5007373;28;20185;-77
2022/04/30 06:45:20;;;;;;;4.85;3.97;;;16.10;76.20;;;;;;5012257;28;20184;-77
2022/04/30 06:47:45;;;;;;;3.15;2.95;;;16.10;76.20;;;;;;5010397;28;20191;-77
2022/04/30 06:50:11;;;;;;;4.13;3.83;;;16.20;75.80;;;;;;5005962;28;20184;-77
2022/04/30 06:57:07;;;;;;;4.70;3.92;;;16.30;75.20;;;;;;5008470;28;20212;-76
2022/04/30 06:58:08;;;;;;;3.72;3.47;;;16.40;75.30;;;;;;5005767;28;20191;-76
2022/04/30 07:03:22;;;;;;;4.07;3.78;;;16.60;74.80;;;;;;5010965;28;20529;-76
2022/04/30 07:06:02;;;;;;;5.10;4.60;;;16.70;72.80;;;;;;5020864;28;20933;-75
2022/04/30 07:08:31;;;;;;;4.13;3.92;;;16.70;73.60;;;;;;5035794;28;20726;-75
2022/04/30 07:10:58;;;;;;;4.22;3.92;;;16.80;74.30;;;;;;5009104;28;20184;-71
2022/04/30 07:13:24;;;;;;;4.35;4.03;;;16.80;73.90;;;;;;5012734;28;20191;-72
2022/04/30 07:15:49;;;;;;;4.15;3.85;;;16.90;73.10;;;;;;5013351;28;20192;-73
2022/04/30 07:18:15;;;;;;;4.95;4.53;;;17.00;73.70;;;;;;5004000;28;20188;-74
2022/04/30 07:20:42;;;;;;;4.43;4.03;;;17.10;72.70;;;;;;5007330;28;20217;-75
2022/04/30 07:23:08;;;;;;;3.65;3.15;;;17.10;73.10;;;;;;5003320;28;20204;-75
2022/04/30 07:25:34;;;;;;;4.03;3.80;;;17.20;72.50;;;;;;5005509;28;20208;-72
2022/04/30 07:28:00;;;;;;;4.88;4.32;;;17.20;72.70;;;;;;5010300;28;20177;-72
2022/04/30 07:30:26;;;;;;;3.75;3.45;;;17.10;72.30;;;;;;5008560;28;20300;-75
2022/04/30 07:32:51;;;;;;;4.18;3.78;;;17.00;72.10;;;;;;5006353;28;20595;-76
2022/04/30 07:35:18;;;;;;;4.57;3.92;;;17.00;72.10;;;;;;5004200;28;20188;-75
2022/04/30 07:37:44;;;;;;;3.80;3.40;;;17.00;72.50;;;;;;5005512;28;20183;-75
2022/04/30 07:40:10;;;;;;;4.10;3.60;;;17.10;72.00;;;;;;5012935;28;20204;-75
2022/04/30 07:42:36;;;;;;;4.40;4.10;;;17.10;72.20;;;;;;5008113;28;20189;-75
2022/04/30 07:45:02;;;;;;;4.25;3.60;;;17.00;72.30;;;;;;5006889;28;21046;-74
2022/04/30 07:47:29;;;;;;;4.53;3.58;;;17.10;72.80;;;;;;5010376;28;20976;-74
2022/04/30 07:49:55;;;;;;;3.83;3.60;;;17.10;72.00;;;;;;5006640;28;20182;-75
2022/04/30 07:52:21;;;;;;;8.57;4.10;;;17.10;72.00;;;;;;5005467;28;20212;-75
2022/04/30 07:54:47;;;;;;;4.25;3.95;;;17.20;71.70;;;;;;5016579;28;20187;-75
2022/04/30 07:57:12;;;;;;;4.13;3.88;;;17.20;71.70;;;;;;5008002;28;20220;-75
2022/04/30 07:59:38;;;;;;;5.72;4.32;;;17.20;71.80;;;;;;5010099;28;20180;-75
2022/04/30 08:02:04;;;;;;;4.10;3.80;;;17.20;71.00;;;;;;5010109;28;20218;-73
2022/04/30 08:04:30;;;;;;;3.58;3.38;;;17.30;71.90;;;;;;5006321;28;20184;-75
2022/04/30 08:06:56;;;;;;;7.28;3.67;;;17.40;72.00;;;;;;5010462;28;20181;-75
2022/04/30 08:09:22;;;;;;;3.95;3.75;;;17.50;71.00;;;;;;5012964;28;20948;-75
2022/04/30 08:11:47;;;;;;;3.72;3.53;;;17.60;69.60;;;;;;5010798;28;20189;-74
2022/04/30 08:14:13;;;;;;;4.47;3.88;;;17.60;70.10;;;;;;5012198;28;20189;-76
2022/04/30 08:16:39;;;;;;;3.85;3.50;;;17.60;70.30;;;;;;5011689;28;20189;-76
2022/04/30 08:19:05;;;;;;;3.88;3.58;;;17.60;69.70;;;;;;5014562;28;20189;-74
2022/04/30 08:21:30;;;;;;;3.53;3.28;;;17.70;70.00;;;;;;5013331;28;20212;-77
2022/04/30 08:23:56;;;;;;;3.05;2.80;;;17.80;70.30;;;;;;5013487;28;20204;-74
2022/04/30 08:26:22;;;;;;;3.88;3.58;;;17.90;70.20;;;;;;5012008;28;21052;-76
2022/04/30 08:28:47;;;;;;;3.53;3.33;;;18.00;68.80;;;;;;5008725;28;20189;-75
2022/04/30 08:31:13;;;;;;;4.65;3.70;;;18.00;68.20;;;;;;5014243;28;20731;-74
2022/04/30 08:33:39;;;;;;;5.63;3.60;;;18.10;69.00;;;;;;5008324;28;20188;-74
2022/04/30 08:36:05;;;;;;;3.30;3.10;;;18.20;69.90;;;;;;5011390;28;20180;-75
2022/04/30 08:38:31;;;;;;;4.45;3.38;;;18.30;69.20;;;;;;5010225;28;20238;-75
2022/04/30 08:40:57;;;;;;;3.28;2.78;;;18.40;69.60;;;;;;5012222;28;20212;-75
2022/04/30 08:43:23;;;;;;;3.42;3.13;;;18.50;69.50;;;;;;5012344;28;20219;-75
2022/04/30 08:45:49;;;;;;;3.15;2.95;;;18.70;69.10;;;;;;5010292;28;20292;-75
2022/04/30 08:48:16;;;;;;;3.40;3.20;;;18.80;68.90;;;;;;5010272;28;20178;-75
2022/04/30 08:50:44;;;;;;;2.83;2.72;;;19.00;68.80;;;;;;5006752;28;20196;-75
2022/04/30 08:53:11;;;;;;;2.60;2.50;;;19.10;68.70;;;;;;5010464;28;20701;-75
2022/04/30 08:55:37;;;;;;;3.08;2.90;;;19.20;68.70;;;;;;5012023;28;20256;-75
2022/04/30 08:58:04;;;;;;;3.42;3.13;;;19.30;68.00;;;;;;5013152;28;20185;-75
2022/04/30 09:00:30;;;;;;;2.30;2.20;;;19.50;68.40;;;;;;5009993;28;20224;-75
2022/04/30 09:02:58;;;;;;;2.38;2.17;;;19.60;68.40;;;;;;5011751;28;20576;-73
2022/04/30 09:05:35;;;;;;;2.33;2.22;;;19.80;67.80;;;;;;5011313;28;20184;-73
2022/04/30 09:08:01;;;;;;;2.95;2.80;;;19.90;67.30;;;;;;5007077;28;20172;-73
2022/04/30 09:10:29;;;;;;;2.40;2.30;;;20.10;67.50;;;;;;5009018;28;20185;-72
2022/04/30 09:13:14;;;;;;;2.33;2.13;;;20.20;67.00;;;;;;5040352;28;20177;-71
2022/04/30 09:15:44;;;;;;;2.15;2.10;;;20.40;67.20;;;;;;5009359;28;20739;-72
2022/04/30 09:18:11;;;;;;;3.35;2.58;;;20.60;65.80;;;;;;5010870;28;20216;-73
2022/04/30 09:20:53;;;;;;;2.28;2.28;;;20.70;65.70;;;;;;5010937;28;20227;-73
2022/04/30 09:23:26;;;;;;;2.33;2.22;;;20.90;65.50;;;;;;5035582;28;20184;-73
2022/04/30 09:25:57;;;;;;;2.10;2.00;;;21.00;64.60;;;;;;5012274;28;20192;-72
2022/04/30 09:28:25;;;;;;;2.33;2.22;;;21.10;65.30;;;;;;5039774;28;20270;-73
2022/04/30 09:30:51;;;;;;;2.40;2.30;;;21.30;64.30;;;;;;5005392;28;20185;-75
2022/04/30 09:33:19;;;;;;;6.82;2.25;;;21.40;64.60;;;;;;5003930;28;20185;-76
2022/04/30 09:38:39;;;;;;;2.17;1.98;;;21.80;63.40;;;;;;5008422;28;20251;-76
2022/04/30 09:41:08;;;;;;;3.38;1.85;;;22.20;63.10;;;;;;5012264;28;20262;-73
2022/04/30 09:43:34;;;;;;;1.70;1.60;;;22.50;61.40;;;;;;5008009;28;20177;-74
2022/04/30 09:46:03;;;;;;;1.40;1.40;;;23.00;61.00;;;;;;5027191;28;20177;-74
2022/04/30 09:54:01;;;;;;;1.35;1.25;;;24.60;58.60;;;;;;5004521;28;20218;-76
2022/04/30 09:56:34;;;;;;;1.17;1.17;;;25.20;57.60;;;;;;5003862;28;20224;-76
2022/04/30 09:59:12;;;;;;;2.67;1.45;;;25.70;56.60;;;;;;5005036;28;20670;-76
2022/04/30 10:01:56;;;;;;;1.25;1.25;;;26.30;54.30;;;;;;5002751;28;20216;-76
2022/04/30 10:04:24;;;;;;;2.25;1.10;;;26.80;53.30;;;;;;5007873;28;20755;-76
2022/04/30 10:06:53;;;;;;;1.38;1.38;;;27.20;53.70;;;;;;5003326;28;20180;-75
2022/04/30 10:09:39;;;;;;;1.15;1.15;;;27.80;53.00;;;;;;5007689;28;20181;-76
2022/04/30 10:12:42;;;;;;;2.20;1.25;;;28.20;52.70;;;;;;5007990;28;20173;-76
2022/04/30 10:15:27;;;;;;;1.30;1.17;;;28.80;51.80;;;;;;5004508;28;20860;-76
2022/04/30 10:17:54;;;;;;;1.30;1.30;;;29.30;52.80;;;;;;5004829;28;20196;-76
2022/04/30 10:20:29;;;;;;;0.95;0.95;;;29.80;50.60;;;;;;5013463;28;20220;-74
2022/04/30 10:23:00;;;;;;;1.17;1.17;;;30.20;49.40;;;;;;5004122;28;20208;-75
2022/04/30 10:25:35;;;;;;;3.00;1.70;;;30.60;50.30;;;;;;5008349;28;20402;-75
2022/04/30 10:28:23;;;;;;;1.40;1.40;;;30.50;50.30;;;;;;5003256;28;20181;-75
2022/04/30 10:31:00;;;;;;;1.85;1.75;;;30.40;48.00;;;;;;5005409;28;20184;-76
2022/04/30 10:33:28;;;;;;;1.65;1.58;;;30.40;50.90;;;;;;5005923;28;20612;-77
2022/04/30 10:36:11;;;;;;;1.60;1.60;;;30.40;49.70;;;;;;5008977;28;20177;-76
2022/04/30 10:38:38;;;;;;;1.35;1.35;;;30.40;49.50;;;;;;4997658;28;20180;-76
2022/04/30 10:41:08;;;;;;;1.33;1.33;;;30.20;50.40;;;;;;5005955;28;20318;-76
2022/04/30 10:43:38;;;;;;;1.80;1.80;;;29.80;50.50;;;;;;5004194;28;20280;-75
2022/04/30 10:46:05;;;;;;;1.58;1.40;;;29.20;51.60;;;;;;5004786;28;20185;-75
2022/04/30 10:48:35;;;;;;;2.38;2.28;;;28.70;51.10;;;;;;5003077;28;20185;-76
2022/04/30 10:51:09;;;;;;;1.48;1.48;;;28.10;52.30;;;;;;5004740;28;20181;-76
2022/04/30 10:53:39;;;;;;;1.25;1.20;;;27.60;51.90;;;;;;4999943;28;20580;-75
2022/04/30 10:56:06;;;;;;;1.17;1.17;;;27.20;53.20;;;;;;5002295;28;20707;-76
2022/04/30 10:58:32;;;;;;;1.25;1.25;;;27.30;52.50;;;;;;5006834;28;20777;-75
2022/04/30 11:01:09;;;;;;;2.33;1.63;;;27.40;51.50;;;;;;5008592;28;20286;-76
2022/04/30 11:03:35;;;;;;;1.95;1.85;;;27.50;52.10;;;;;;5001200;28;20275;-76
2022/04/30 11:06:01;;;;;;;1.98;1.75;;;27.30;52.80;;;;;;5004112;28;20208;-74
2022/04/30 11:08:26;;;;;;;1.63;1.63;;;27.20;52.80;;;;;;5003720;28;20690;-72
2022/04/30 11:10:55;;;;;;;1.52;1.42;;;27.20;53.00;;;;;;5008547;28;20192;-75
2022/04/30 11:13:22;;;;;;;1.33;1.33;;;27.60;52.70;;;;;;5006894;28;20181;-74
2022/04/30 11:15:48;;;;;;;1.10;1.10;;;28.00;51.90;;;;;;5006558;28;20173;-75
2022/04/30 11:18:33;;;;;;;1.42;1.15;;;28.30;51.60;;;;;;5002324;28;20334;-76
2022/04/30 11:21:00;;;;;;;1.55;1.55;;;28.30;50.60;;;;;;5003898;28;20212;-76
2022/04/30 11:23:25;;;;;;;1.77;1.77;;;28.20;50.60;;;;;;5033555;28;20191;-75
2022/04/30 11:25:51;;;;;;;1.40;1.40;;;28.00;51.50;;;;;;5011640;28;20200;-73
2022/04/30 11:28:17;;;;;;;1.52;1.52;;;27.70;49.70;;;;;;5003841;28;20271;-74
2022/04/30 11:30:45;;;;;;;1.52;1.42;;;27.20;52.00;;;;;;5016502;28;20193;-76
2022/04/30 11:33:12;;;;;;;1.40;1.33;;;26.80;52.40;;;;;;5015153;28;20179;-73
2022/04/30 11:35:38;;;;;;;1.48;1.48;;;26.60;52.00;;;;;;5045044;28;20180;-73
2022/04/30 11:38:09;;;;;;;1.30;1.30;;;26.50;53.20;;;;;;5010706;28;20234;-74
2022/04/30 11:40:35;;;;;;;1.00;1.00;;;26.50;52.10;;;;;;5009339;28;20303;-75
2022/04/30 11:43:02;;;;;;;1.23;1.05;;;26.40;51.70;;;;;;5010769;28;20294;-74
2022/04/30 11:45:32;;;;;;;1.08;1.08;;;26.20;53.20;;;;;;5016149;28;20184;-73
2022/04/30 11:47:59;;;;;;;1.10;1.10;;;25.90;52.90;;;;;;5007179;28;20897;-74
2022/04/30 11:50:26;;;;;;;0.88;0.88;;;25.80;53.60;;;;;;5010210;28;20185;-74
2022/04/30 11:52:52;;;;;;;1.35;1.30;;;25.80;53.50;;;;;;5010285;28;20200;-75
2022/04/30 11:55:20;;;;;;;0.70;0.70;;;25.70;53.20;;;;;;5006131;28;20177;-75
2022/04/30 11:57:46;;;;;;;1.15;1.15;;;25.90;54.50;;;;;;5003829;28;20177;-77
2022/04/30 12:00:14;;;;;;;1.13;1.13;;;26.10;53.30;;;;;;5011022;28;20668;-77
2022/04/30 12:02:41;;;;;;;1.50;1.40;;;26.10;53.40;;;;;;5014246;28;20967;-75
2022/04/30 12:05:08;;;;;;;2.35;1.35;;;26.00;53.60;;;;;;5010365;28;20189;-75
2022/04/30 12:07:42;;;;;;;1.50;1.50;;;25.80;53.80;;;;;;5009964;28;20727;-76
2022/04/30 12:10:19;;;;;;;1.35;1.35;;;25.50;53.40;;;;;;5015334;28;20657;-76
2022/04/30 12:12:46;;;;;;;2.60;1.20;;;25.30;53.30;;;;;;5011284;28;20180;-76
2022/04/30 12:15:25;;;;;;;1.02;1.02;;;25.00;54.30;;;;;;5013316;28;20188;-75
2022/04/30 12:26:38;;;;;;;1.02;1.02;;;23.80;55.80;;;;;;5010883;28;20196;-72
2022/04/30 12:29:21;;;;;;;1.38;1.33;;;23.60;56.10;;;;;;5009711;28;20242;-72
2022/04/30 12:31:51;;;;;;;0.95;0.95;;;23.40;55.70;;;;;;5007075;28;20267;-73
2022/04/30 12:34:28;;;;;;;1.20;1.20;;;23.30;56.90;;;;;;5044827;28;20181;-73
2022/04/30 12:36:55;;;;;;;2.72;0.98;;;23.20;57.20;;;;;;5010879;28;20208;-76
2022/04/30 12:39:23;;;;;;;1.20;1.17;;;23.00;56.60;;;;;;5037850;28;20638;-76
2022/04/30 12:41:49;;;;;;;1.25;0.90;;;22.90;57.50;;;;;;5039888;28;20216;-77
2022/04/30 12:44:16;;;;;;;1.75;0.90;;;23.00;57.50;;;;;;5015833;28;20176;-76
2022/04/30 12:46:46;;;;;;;1.10;1.10;;;22.90;57.20;;;;;;5008096;28;20628;-76
2022/04/30 12:49:13;;;;;;;1.10;1.10;;;23.10;57.00;;;;;;5016201;28;20239;-78
2022/04/30 12:51:40;;;;;;;1.00;1.00;;;23.20;57.10;;;;;;5008115;28;20984;-77
2022/04/30 12:54:12;;;;;;;1.13;1.10;;;23.40;58.00;;;;;;5008086;28;20189;-76
2022/04/30 12:56:38;;;;;;;1.00;1.00;;;23.60;57.50;;;;;;5046139;28;20189;-76
2022/04/30 12:59:04;;;;;;;0.98;0.95;;;23.90;57.90;;;;;;5009822;28;20173;-77
2022/04/30 13:01:29;;;;;;;0.90;0.90;;;24.40;58.30;;;;;;5016501;28;20227;-77
2022/04/30 13:03:58;;;;;;;1.15;1.15;;;24.80;58.80;;;;;;5009393;28;21090;-76
2022/04/30 13:06:23;;;;;;;1.10;1.10;;;25.00;58.70;;;;;;5042764;28;20753;-76
2022/04/30 13:14:18;;;;;;;1.67;1.00;;;25.40;57.90;;;;;;5011539;28;20319;-76
2022/04/30 13:16:43;;;;;;;1.10;1.10;;;25.40;58.50;;;;;;5015587;28;20276;-75
2022/04/30 13:19:10;;;;;;;1.00;1.00;;;25.20;58.30;;;;;;5012803;28;20200;-75
2022/04/30 13:21:36;;;;;;;0.82;0.82;;;25.20;58.60;;;;;;5011812;28;20216;-76
2022/04/30 13:24:03;;;;;;;0.93;0.93;;;25.30;58.30;;;;;;5011839;28;20611;-76
2022/04/30 13:26:29;;;;;;;1.05;1.00;;;25.40;58.00;;;;;;5017152;28;20193;-75
2022/04/30 13:28:54;;;;;;;1.10;1.05;;;25.60;57.80;;;;;;5011049;28;20211;-75
2022/04/30 13:31:22;;;;;;;2.15;1.20;;;25.30;56.50;;;;;;5011188;28;20580;-76
2022/04/30 13:33:48;;;;;;;4.22;1.48;;;25.20;57.30;;;;;;5009520;28;20211;-76
2022/04/30 13:36:14;;;;;;;1.02;1.02;;;24.70;57.60;;;;;;5042074;28;20853;-75
2022/04/30 13:38:41;;;;;;;1.50;1.40;;;24.40;59.00;;;;;;5008668;28;20195;-75
2022/04/30 13:41:08;;;;;;;1.00;1.00;;;24.30;59.30;;;;;;5012627;28;20286;-75